sensor_id;sensor_type;location;lat;lon;timestamp;temperature;humidity
20398;DHT22;10358;49.590;11.030;2022-10-16T14:51:57;27.20;70.80
20398;DHT22;10358;49.590;11.030;2022-10-16T14:54:23;26.80;72.50
20398;DHT22;10358;49.590;11.030;2022-10-16T14:56:57;26.70;72.90
20398;DHT22;10358;49.590;11.030;2022-10-16T14:59:34;26.40;73.40
20398;DHT22;10358;49.590;11.030;2022-10-16T15:04:43;25.80;75.40
20398;DHT22;10358;49.590;11.030;2022-10-16T15:07:09;25.50;76.40
20398;DHT22;10358;49.590;11.030;2022-10-16T15:09:34;25.20;77.70
20398;DHT22;10358;49.590;11.030;2022-10-16T15:12:00;24.90;78.80
20398;DHT22;10358;49.590;11.030;2022-10-16T15:14:25;24.80;79.90
20398;DHT22;10358;49.590;11.030;2022-10-16T15:16:51;24.50;81.00
20398;DHT22;10358;49.590;11.030;2022-10-16T15:19:16;24.30;82.50
20398;DHT22;10358;49.590;11.030;2022-10-16T15:21:42;24.00;83.80
20398;DHT22;10358;49.590;11.030;2022-10-16T15:24:11;23.90;85.10
20398;DHT22;10358;49.590;11.030;2022-10-16T15:26:37;23.60;86.60
20398;DHT22;10358;49.590;11.030;2022-10-16T15:29:03;23.40;88.20
20398;DHT22;10358;49.590;11.030;2022-10-16T15:31:29;23.20;90.00
20398;DHT22;10358;49.590;11.030;2022-10-16T15:33:54;23.00;90.70
20398;DHT22;10358;49.590;11.030;2022-10-16T15:36:28;22.90;91.40
20398;DHT22;10358;49.590;11.030;2022-10-16T15:38:54;22.80;92.00
20398;DHT22;10358;49.590;11.030;2022-10-16T15:41:20;22.70;92.80
20398;DHT22;10358;49.590;11.030;2022-10-16T15:43:48;22.60;93.80
20398;DHT22;10358;49.590;11.030;2022-10-16T15:46:14;22.40;94.70
20398;DHT22;10358;49.590;11.030;2022-10-16T15:48:40;22.30;96.30
20398;DHT22;10358;49.590;11.030;2022-10-16T15:51:07;22.10;97.60
20398;DHT22;10358;49.590;11.030;2022-10-16T15:53:33;21.90;98.80
20398;DHT22;10358;49.590;11.030;2022-10-16T15:56:09;21.80;99.90
20398;DHT22;10358;49.590;11.030;2022-10-16T15:58:36;21.60;99.90
20398;DHT22;10358;49.590;11.030;2022-10-16T16:01:02;21.50;99.90
20398;DHT22;10358;49.590;11.030;2022-10-16T16:03:30;21.40;99.90
20398;DHT22;10358;49.590;11.030;2022-10-16T16:05:56;21.30;99.90
20398;DHT22;10358;49.590;11.030;2022-10-16T16:08:22;21.20;99.90
20398;DHT22;10358;49.590;11.030;2022-10-16T16:11:02;21.00;99.90
20398;DHT22;10358;49.590;11.030;2022-10-16T16:13:28;20.90;99.90
20398;DHT22;10358;49.590;11.030;2022-10-16T16:15:54;20.80;99.90
20398;DHT22;10358;49.590;11.030;2022-10-16T16:18:19;20.70;99.90
20398;DHT22;10358;49.590;11.030;2022-10-16T16:20:45;20.60;99.90
20398;DHT22;10358;49.590;11.030;2022-10-16T16:23:11;20.60;99.90
20398;DHT22;10358;49.590;11.030;2022-10-16T16:25:36;20.50;99.90
20398;DHT22;10358;49.590;11.030;2022-10-16T16:28:02;20.30;99.90
20398;DHT22;10358;49.590;11.030;2022-10-16T16:30:27;20.20;99.90
20398;DHT22;10358;49.590;11.030;2022-10-16T16:32:53;20.10;99.90
20398;DHT22;10358;49.590;11.030;2022-10-16T16:35:19;20.00;99.90
20398;DHT22;10358;49.590;11.030;2022-10-16T16:37:44;19.90;99.90
20398;DHT22;10358;49.590;11.030;2022-10-16T16:40:10;19.90;99.90
20398;DHT22;10358;49.590;11.030;2022-10-16T16:42:35;19.80;99.90
20398;DHT22;10358;49.590;11.030;2022-10-16T16:45:01;19.70;99.90
20398;DHT22;10358;49.590;11.030;2022-10-16T16:47:27;19.60;99.90
20398;DHT22;10358;49.590;11.030;2022-10-16T16:49:52;19.50;99.90
20398;DHT22;10358;49.590;11.030;2022-10-16T16:52:18;19.50;99.90
20398;DHT22;10358;49.590;11.030;2022-10-16T16:54:43;19.50;99.90
20398;DHT22;10358;49.590;11.030;2022-10-16T16:57:16;19.30;99.90
20398;DHT22;10358;49.590;11.030;2022-10-16T16:59:42;19.40;99.90
20398;DHT22;10358;49.590;11.030;2022-10-16T17:02:08;19.30;99.90
20398;DHT22;10358;49.590;11.030;2022-10-16T17:04:34;19.30;99.90
20398;DHT22;10358;49.590;11.030;2022-10-16T17:07:00;19.20;99.90
20398;DHT22;10358;49.590;11.030;2022-10-16T17:09:26;19.10;99.90
20398;DHT22;10358;49.590;11.030;2022-10-16T17:11:51;19.10;99.90
20398;DHT22;10358;49.590;11.030;2022-10-16T17:14:17;19.00;99.90
20398;DHT22;10358;49.590;11.030;2022-10-16T17:16:42;18.90;99.90
20398;DHT22;10358;49.590;11.030;2022-10-16T17:19:18;18.90;99.90
20398;DHT22;10358;49.590;11.030;2022-10-16T17:21:45;18.80;99.90
20398;DHT22;10358;49.590;11.030;2022-10-16T17:24:11;18.80;99.90
20398;DHT22;10358;49.590;11.030;2022-10-16T17:26:37;18.70;99.90
20398;DHT22;10358;49.590;11.030;2022-10-16T17:29:04;18.70;99.90
20398;DHT22;10358;49.590;11.030;2022-10-16T17:31:33;18.60;99.90
20398;DHT22;10358;49.590;11.030;2022-10-16T17:34:00;18.60;99.90
20398;DHT22;10358;49.590;11.030;2022-10-16T17:36:26;18.60;99.90
20398;DHT22;10358;49.590;11.030;2022-10-16T17:38:57;18.60;99.90
20398;DHT22;10358;49.590;11.030;2022-10-16T17:41:25;18.50;99.90
20398;DHT22;10358;49.590;11.030;2022-10-16T17:43:51;18.50;99.90
20398;DHT22;10358;49.590;11.030;2022-10-16T17:46:19;18.40;99.90
20398;DHT22;10358;49.590;11.030;2022-10-16T17:48:46;18.40;99.90
20398;DHT22;10358;49.590;11.030;2022-10-16T17:51:16;18.40;99.90
20398;DHT22;10358;49.590;11.030;2022-10-16T17:53:42;18.40;99.90
20398;DHT22;10358;49.590;11.030;2022-10-16T17:56:11;18.40;99.90
20398;DHT22;10358;49.590;11.030;2022-10-16T17:58:37;18.40;99.90
20398;DHT22;10358;49.590;11.030;2022-10-16T18:01:11;18.40;99.90
20398;DHT22;10358;49.590;11.030;2022-10-16T18:03:37;18.40;99.90
20398;DHT22;10358;49.590;11.030;2022-10-16T18:06:03;18.30;99.90
20398;DHT22;10358;49.590;11.030;2022-10-16T18:08:29;18.30;99.90
20398;DHT22;10358;49.590;11.030;2022-10-16T18:10:55;18.20;99.90
20398;DHT22;10358;49.590;11.030;2022-10-16T18:13:20;18.20;99.90
20398;DHT22;10358;49.590;11.030;2022-10-16T18:15:46;18.20;99.90
20398;DHT22;10358;49.590;11.030;2022-10-16T18:18:12;18.20;99.90
20398;DHT22;10358;49.590;11.030;2022-10-16T18:20:38;18.10;99.90
20398;DHT22;10358;49.590;11.030;2022-10-16T18:23:04;18.10;99.90
20398;DHT22;10358;49.590;11.030;2022-10-16T18:25:29;18.10;99.90
20398;DHT22;10358;49.590;11.030;2022-10-16T18:27:55;18.10;99.90
20398;DHT22;10358;49.590;11.030;2022-10-16T18:30:20;18.00;99.90
20398;DHT22;10358;49.590;11.030;2022-10-16T18:32:47;18.00;99.90
20398;DHT22;10358;49.590;11.030;2022-10-16T18:35:12;18.00;99.90
20398;DHT22;10358;49.590;11.030;2022-10-16T18:37:38;18.00;99.90
20398;DHT22;10358;49.590;11.030;2022-10-16T18:40:04;18.00;99.90
20398;DHT22;10358;49.590;11.030;2022-10-16T18:42:30;17.90;99.90
20398;DHT22;10358;49.590;11.030;2022-10-16T18:44:56;17.90;99.90
20398;DHT22;10358;49.590;11.030;2022-10-16T18:47:21;17.90;99.90
20398;DHT22;10358;49.590;11.030;2022-10-16T18:49:50;17.80;99.90
20398;DHT22;10358;49.590;11.030;2022-10-16T18:52:16;17.80;99.90
20398;DHT22;10358;49.590;11.030;2022-10-16T18:54:42;17.70;99.90
20398;DHT22;10358;49.590;11.030;2022-10-16T18:57:07;17.70;99.90
20398;DHT22;10358;49.590;11.030;2022-10-16T18:59:33;17.60;99.90
20398;DHT22;10358;49.590;11.030;2022-10-16T19:01:58;17.50;99.90
20398;DHT22;10358;49.590;11.030;2022-10-16T19:04:24;17.50;99.90
20398;DHT22;10358;49.590;11.030;2022-10-16T19:06:52;17.40;99.90
20398;DHT22;10358;49.590;11.030;2022-10-16T19:09:20;17.30;99.90
20398;DHT22;10358;49.590;11.030;2022-10-16T19:11:46;17.30;99.90
20398;DHT22;10358;49.590;11.030;2022-10-16T19:14:13;17.20;99.90
20398;DHT22;10358;49.590;11.030;2022-10-16T19:16:39;17.20;99.90
20398;DHT22;10358;49.590;11.030;2022-10-16T19:19:13;17.10;99.90
20398;DHT22;10358;49.590;11.030;2022-10-16T19:21:40;17.10;99.90
20398;DHT22;10358;49.590;11.030;2022-10-16T19:24:07;17.00;99.90
20398;DHT22;10358;49.590;11.030;2022-10-16T19:26:33;17.00;99.90
20398;DHT22;10358;49.590;11.030;2022-10-16T19:29:01;16.90;99.90
20398;DHT22;10358;49.590;11.030;2022-10-16T19:31:29;16.80;99.90
20398;DHT22;10358;49.590;11.030;2022-10-16T19:33:57;16.80;99.90
20398;DHT22;10358;49.590;11.030;2022-10-16T19:36:31;16.70;99.90
20398;DHT22;10358;49.590;11.030;2022-10-16T19:39:06;16.60;99.90
20398;DHT22;10358;49.590;11.030;2022-10-16T19:41:32;16.50;99.90
20398;DHT22;10358;49.590;11.030;2022-10-16T19:44:03;16.50;99.90
20398;DHT22;10358;49.590;11.030;2022-10-16T19:46:30;16.40;99.90
20398;DHT22;10358;49.590;11.030;2022-10-16T19:49:01;16.30;99.90
20398;DHT22;10358;49.590;11.030;2022-10-16T19:51:28;16.30;99.90
20398;DHT22;10358;49.590;11.030;2022-10-16T19:53:59;16.20;99.90
20398;DHT22;10358;49.590;11.030;2022-10-16T19:56:27;16.10;99.90
20398;DHT22;10358;49.590;11.030;2022-10-16T19:58:55;16.00;99.90
20398;DHT22;10358;49.590;11.030;2022-10-16T20:01:22;15.90;99.90
20398;DHT22;10358;49.590;11.030;2022-10-16T20:03:48;15.90;99.90
20398;DHT22;10358;49.590;11.030;2022-10-16T20:06:16;15.90;99.90
20398;DHT22;10358;49.590;11.030;2022-10-16T20:08:43;15.80;99.90
20398;DHT22;10358;49.590;11.030;2022-10-16T20:11:26;15.80;99.90
20398;DHT22;10358;49.590;11.030;2022-10-16T20:13:52;15.70;99.90
20398;DHT22;10358;49.590;11.030;2022-10-16T20:16:18;15.60;99.90
20398;DHT22;10358;49.590;11.030;2022-10-16T20:18:46;15.60;99.90
20398;DHT22;10358;49.590;11.030;2022-10-16T20:21:14;15.50;99.90
20398;DHT22;10358;49.590;11.030;2022-10-16T20:23:40;15.50;99.90
20398;DHT22;10358;49.590;11.030;2022-10-16T20:26:06;15.50;99.90
20398;DHT22;10358;49.590;11.030;2022-10-16T20:28:32;15.50;99.90
20398;DHT22;10358;49.590;11.030;2022-10-16T20:31:04;15.50;99.90
20398;DHT22;10358;49.590;11.030;2022-10-16T20:33:29;15.40;99.90
20398;DHT22;10358;49.590;11.030;2022-10-16T20:35:55;15.40;99.90
20398;DHT22;10358;49.590;11.030;2022-10-16T20:38:20;15.30;99.90
20398;DHT22;10358;49.590;11.030;2022-10-16T20:40:46;15.20;99.90
20398;DHT22;10358;49.590;11.030;2022-10-16T20:43:15;15.20;99.90
20398;DHT22;10358;49.590;11.030;2022-10-16T20:45:42;15.10;99.90
20398;DHT22;10358;49.590;11.030;2022-10-16T20:48:08;15.10;99.90
20398;DHT22;10358;49.590;11.030;2022-10-16T20:50:35;15.00;99.90
20398;DHT22;10358;49.590;11.030;2022-10-16T20:53:01;15.00;99.90
20398;DHT22;10358;49.590;11.030;2022-10-16T20:55:27;15.00;99.90
20398;DHT22;10358;49.590;11.030;2022-10-16T20:57:52;14.90;99.90
20398;DHT22;10358;49.590;11.030;2022-10-16T21:00:18;14.90;99.90
20398;DHT22;10358;49.590;11.030;2022-10-16T21:02:44;14.90;99.90
20398;DHT22;10358;49.590;11.030;2022-10-16T21:05:09;14.90;99.90
20398;DHT22;10358;49.590;11.030;2022-10-16T21:07:35;14.80;99.90
20398;DHT22;10358;49.590;11.030;2022-10-16T21:10:02;14.70;99.90
20398;DHT22;10358;49.590;11.030;2022-10-16T21:12:34;14.70;99.90
20398;DHT22;10358;49.590;11.030;2022-10-16T21:15:04;14.70;99.90
20398;DHT22;10358;49.590;11.030;2022-10-16T21:17:30;14.60;99.90
20398;DHT22;10358;49.590;11.030;2022-10-16T21:19:56;14.60;99.90
20398;DHT22;10358;49.590;11.030;2022-10-16T21:22:21;14.60;99.90
20398;DHT22;10358;49.590;11.030;2022-10-16T21:24:47;14.50;99.90
20398;DHT22;10358;49.590;11.030;2022-10-16T21:27:13;14.50;99.90
20398;DHT22;10358;49.590;11.030;2022-10-16T21:29:39;14.40;99.90
20398;DHT22;10358;49.590;11.030;2022-10-16T21:32:04;14.40;99.90
20398;DHT22;10358;49.590;11.030;2022-10-16T21:34:30;14.40;99.90
20398;DHT22;10358;49.590;11.030;2022-10-16T21:36:55;14.40;99.90
20398;DHT22;10358;49.590;11.030;2022-10-16T21:39:21;14.40;99.90
20398;DHT22;10358;49.590;11.030;2022-10-16T21:41:48;14.40;99.90
20398;DHT22;10358;49.590;11.030;2022-10-16T21:44:15;14.40;99.90
20398;DHT22;10358;49.590;11.030;2022-10-16T21:46:42;14.30;99.90
20398;DHT22;10358;49.590;11.030;2022-10-16T21:49:16;14.30;99.90
20398;DHT22;10358;49.590;11.030;2022-10-16T21:51:45;14.30;99.90
20398;DHT22;10358;49.590;11.030;2022-10-16T21:54:14;14.20;99.90
20398;DHT22;10358;49.590;11.030;2022-10-16T21:56:40;14.20;99.90
20398;DHT22;10358;49.590;11.030;2022-10-16T21:59:05;14.10;99.90
20398;DHT22;10358;49.590;11.030;2022-10-16T22:01:31;14.10;99.90
20398;DHT22;10358;49.590;11.030;2022-10-16T22:03:57;14.10;99.90
20398;DHT22;10358;49.590;11.030;2022-10-16T22:06:24;14.10;99.90
20398;DHT22;10358;49.590;11.030;2022-10-16T22:08:53;14.00;99.90
20398;DHT22;10358;49.590;11.030;2022-10-16T22:11:28;14.00;99.90
20398;DHT22;10358;49.590;11.030;2022-10-16T22:13:57;13.90;99.90
20398;DHT22;10358;49.590;11.030;2022-10-16T22:16:26;13.90;99.90
20398;DHT22;10358;49.590;11.030;2022-10-16T22:18:53;13.80;99.90
20398;DHT22;10358;49.590;11.030;2022-10-16T22:21:19;13.80;99.90
20398;DHT22;10358;49.590;11.030;2022-10-16T22:23:44;13.90;99.90
20398;DHT22;10358;49.590;11.030;2022-10-16T22:26:11;13.90;99.90
20398;DHT22;10358;49.590;11.030;2022-10-16T22:28:37;14.00;99.90
20398;DHT22;10358;49.590;11.030;2022-10-16T22:31:05;13.90;99.90
20398;DHT22;10358;49.590;11.030;2022-10-16T22:33:31;13.90;99.90
20398;DHT22;10358;49.590;11.030;2022-10-16T22:35:59;13.90;99.90
20398;DHT22;10358;49.590;11.030;2022-10-16T22:38:28;13.80;99.90
20398;DHT22;10358;49.590;11.030;2022-10-16T22:40:54;13.80;99.90
20398;DHT22;10358;49.590;11.030;2022-10-16T22:43:19;13.80;99.90
20398;DHT22;10358;49.590;11.030;2022-10-16T22:45:45;13.80;99.90
20398;DHT22;10358;49.590;11.030;2022-10-16T22:48:10;13.70;99.90
20398;DHT22;10358;49.590;11.030;2022-10-16T22:50:36;13.70;99.90
20398;DHT22;10358;49.590;11.030;2022-10-16T22:53:01;13.70;99.90
20398;DHT22;10358;49.590;11.030;2022-10-16T22:55:27;13.60;99.90
20398;DHT22;10358;49.590;11.030;2022-10-16T22:57:55;13.60;99.90
20398;DHT22;10358;49.590;11.030;2022-10-16T23:00:21;13.60;99.90
20398;DHT22;10358;49.590;11.030;2022-10-16T23:02:47;13.60;99.90
20398;DHT22;10358;49.590;11.030;2022-10-16T23:05:12;13.50;99.90
20398;DHT22;10358;49.590;11.030;2022-10-16T23:07:38;13.50;99.90
20398;DHT22;10358;49.590;11.030;2022-10-16T23:10:05;13.40;99.90
20398;DHT22;10358;49.590;11.030;2022-10-16T23:12:32;13.40;99.90
20398;DHT22;10358;49.590;11.030;2022-10-16T23:14:57;13.30;99.90
20398;DHT22;10358;49.590;11.030;2022-10-16T23:17:23;13.30;99.90
20398;DHT22;10358;49.590;11.030;2022-10-16T23:19:48;13.30;99.90
20398;DHT22;10358;49.590;11.030;2022-10-16T23:22:14;13.20;99.90
20398;DHT22;10358;49.590;11.030;2022-10-16T23:24:40;13.20;99.90
20398;DHT22;10358;49.590;11.030;2022-10-16T23:27:05;13.20;99.90
20398;DHT22;10358;49.590;11.030;2022-10-16T23:29:31;13.20;99.90
20398;DHT22;10358;49.590;11.030;2022-10-16T23:31:56;13.20;99.90
20398;DHT22;10358;49.590;11.030;2022-10-16T23:34:23;13.20;99.90
20398;DHT22;10358;49.590;11.030;2022-10-16T23:36:49;13.20;99.90
20398;DHT22;10358;49.590;11.030;2022-10-16T23:39:15;13.20;99.90
20398;DHT22;10358;49.590;11.030;2022-10-16T23:41:40;13.20;99.90
20398;DHT22;10358;49.590;11.030;2022-10-16T23:44:06;13.20;99.90
20398;DHT22;10358;49.590;11.030;2022-10-16T23:46:32;13.20;99.90
20398;DHT22;10358;49.590;11.030;2022-10-16T23:48:57;13.10;99.90
20398;DHT22;10358;49.590;11.030;2022-10-16T23:51:23;13.10;99.90
20398;DHT22;10358;49.590;11.030;2022-10-16T23:53:49;13.10;99.90
20398;DHT22;10358;49.590;11.030;2022-10-16T23:56:14;13.10;99.90
20398;DHT22;10358;49.590;11.030;2022-10-16T23:58:40;13.10;99.90
